Time;durP1;ratioP1;P1;durP2;ratioP2;P2;SDS_P1;SDS_P2;PMS_P1;PMS_P2;Temp;Humidity;BMP_temperature;BMP_pressure;BME280_temperature;BME280_humidity;BME280_pressure;Samples;Min_cycle;Max_cycle;Signal;HPM_P1;HPM_P2
2021/12/03 00:00:30;;;;;;;32.75;20.08;;;1.90;99.90;;;;;;5075191;28;20257;-45
2021/12/03 00:02:56;;;;;;;33.28;20.67;;;2.00;99.90;;;;;;5075124;28;20165;-45
2021/12/03 00:05:22;;;;;;;33.08;20.50;;;2.00;99.90;;;;;;5074853;28;20162;-45
2021/12/03 00:07:48;;;;;;;34.85;20.27;;;2.00;99.90;;;;;;5074550;28;20174;-45
2021/12/03 00:10:15;;;;;;;32.72;20.08;;;2.00;99.90;;;;;;5074276;28;20221;-45
2021/12/03 00:12:42;;;;;;;35.05;20.77;;;2.00;99.90;;;;;;5074581;28;20559;-45
2021/12/03 00:15:11;;;;;;;34.55;20.23;;;1.90;99.90;;;;;;5074363;28;20539;-45
2021/12/03 00:17:37;;;;;;;33.53;20.00;;;1.90;99.90;;;;;;5074405;28;20172;-46
2021/12/03 00:20:06;;;;;;;31.75;20.13;;;1.80;99.90;;;;;;5074296;28;20205;-46
2021/12/03 00:22:32;;;;;;;33.42;20.73;;;1.90;99.90;;;;;;5074084;28;20206;-45
2021/12/03 00:24:57;;;;;;;33.58;20.23;;;1.80;99.90;;;;;;5074342;28;20166;-45
2021/12/03 00:27:23;;;;;;;35.20;21.27;;;1.80;99.90;;;;;;5074429;28;20166;-46
2021/12/03 00:29:48;;;;;;;29.42;19.92;;;1.80;99.90;;;;;;5074088;28;20543;-45
2021/12/03 00:32:14;;;;;;;29.75;20.08;;;1.80;99.90;;;;;;5074092;28;20201;-45
2021/12/03 00:34:39;;;;;;;29.80;16.77;;;1.80;99.90;;;;;;5074073;28;20223;-45
2021/12/03 00:37:05;;;;;;;34.15;19.70;;;1.90;99.90;;;;;;5073978;28;20177;-45
2021/12/03 00:39:31;;;;;;;30.15;19.10;;;1.90;99.90;;;;;;5074440;28;20181;-45
2021/12/03 00:42:01;;;;;;;33.53;19.42;;;1.90;99.90;;;;;;5074099;28;20291;-45
2021/12/03 00:44:29;;;;;;;28.75;17.98;;;2.00;99.90;;;;;;5074203;28;20170;-45
2021/12/03 00:46:55;;;;;;;33.20;19.92;;;2.00;99.90;;;;;;5074378;28;20277;-46
2021/12/03 00:49:21;;;;;;;31.50;18.65;;;2.10;99.90;;;;;;5073807;28;20205;-45
2021/12/03 00:51:46;;;;;;;32.78;19.73;;;2.20;99.90;;;;;;5073770;28;20188;-46
2021/12/03 00:54:13;;;;;;;27.20;15.98;;;2.20;99.90;;;;;;5073738;28;20165;-45
2021/12/03 00:56:39;;;;;;;32.70;19.67;;;2.20;99.90;;;;;;5073865;28;20166;-45
2021/12/03 00:59:04;;;;;;;27.23;17.10;;;2.20;99.90;;;;;;5073699;28;20185;-45
2021/12/03 01:01:30;;;;;;;24.85;16.58;;;2.20;99.90;;;;;;5073447;28;20237;-44
2021/12/03 01:03:56;;;;;;;29.17;16.25;;;2.20;99.90;;;;;;5073694;28;20171;-44
2021/12/03 01:06:21;;;;;;;26.77;16.95;;;2.20;99.90;;;;;;5073845;28;20653;-46
2021/12/03 01:08:47;;;;;;;34.35;18.65;;;2.20;99.90;;;;;;5071893;28;20232;-45
2021/12/03 01:11:13;;;;;;;29.85;18.50;;;2.10;99.90;;;;;;5073414;28;20162;-45
2021/12/03 01:13:41;;;;;;;32.63;17.20;;;2.10;99.90;;;;;;5073346;28;20173;-45
2021/12/03 01:16:09;;;;;;;35.70;20.05;;;2.10;99.90;;;;;;5072914;28;20173;-46
2021/12/03 01:18:35;;;;;;;32.33;18.83;;;2.10;99.90;;;;;;5073480;28;20261;-46
2021/12/03 01:21:01;;;;;;;30.30;18.13;;;2.10;99.90;;;;;;5073227;28;20292;-45
2021/12/03 01:23:27;;;;;;;28.63;18.17;;;2.10;99.90;;;;;;5073116;28;20173;-45
2021/12/03 01:25:52;;;;;;;29.20;18.63;;;2.10;99.90;;;;;;5073376;28;20166;-46
2021/12/03 01:28:18;;;;;;;28.42;18.13;;;2.10;99.90;;;;;;5072934;28;20170;-45
2021/12/03 01:30:44;;;;;;;25.80;16.35;;;2.00;99.90;;;;;;5073220;28;20523;-46
2021/12/03 01:33:10;;;;;;;34.28;17.83;;;2.00;99.90;;;;;;5072878;28;20193;-46
2021/12/03 01:35:37;;;;;;;33.58;18.33;;;2.10;99.90;;;;;;5072948;28;20185;-46
2021/12/03 01:38:05;;;;;;;33.45;18.65;;;2.00;99.90;;;;;;5072778;28;20641;-46
2021/12/03 01:40:33;;;;;;;32.33;17.45;;;2.10;99.90;;;;;;5072682;28;20182;-49
2021/12/03 01:43:00;;;;;;;35.33;18.52;;;2.10;99.90;;;;;;5072995;28;20239;-45
2021/12/03 01:45:29;;;;;;;29.70;16.83;;;2.10;99.90;;;;;;5073083;28;20194;-45
2021/12/03 01:47:56;;;;;;;27.40;15.13;;;2.10;99.90;;;;;;5073058;28;20162;-46
2021/12/03 01:50:44;;;;;;;26.10;15.43;;;2.00;99.90;;;;;;5072836;28;20215;-46
2021/12/03 01:53:11;;;;;;;23.13;13.48;;;2.10;99.90;;;;;;5072147;28;20225;-45
2021/12/03 01:55:38;;;;;;;26.98;13.93;;;2.10;99.90;;;;;;5072513;28;20642;-45
2021/12/03 01:58:04;;;;;;;26.00;15.77;;;2.10;99.90;;;;;;5072379;28;20244;-45
2021/12/03 02:00:35;;;;;;;26.90;15.90;;;2.20;99.90;;;;;;5072309;28;20170;-45
2021/12/03 02:03:01;;;;;;;33.88;16.00;;;2.20;99.90;;;;;;5072373;28;20174;-46
2021/12/03 02:05:27;;;;;;;27.25;14.50;;;2.20;99.90;;;;;;5072173;28;20526;-44
2021/12/03 02:07:52;;;;;;;28.63;15.45;;;2.20;99.90;;;;;;5072250;28;20172;-45
2021/12/03 02:10:21;;;;;;;24.83;14.65;;;2.30;99.90;;;;;;5072262;28;20182;-44
2021/12/03 02:12:47;;;;;;;25.23;14.95;;;2.30;99.90;;;;;;5072194;28;20162;-46
2021/12/03 02:15:14;;;;;;;28.60;15.13;;;2.30;99.90;;;;;;5072153;28;20158;-45
2021/12/03 02:17:39;;;;;;;21.92;12.85;;;2.30;99.90;;;;;;5072195;28;20176;-45
2021/12/03 02:20:08;;;;;;;21.67;13.65;;;2.30;99.90;;;;;;5072239;28;20253;-45
2021/12/03 02:22:33;;;;;;;24.83;11.30;;;2.40;99.90;;;;;;5072086;28;20202;-45
2021/12/03 02:24:59;;;;;;;19.95;11.82;;;2.40;99.90;;;;;;5072135;28;20257;-46
2021/12/03 02:27:24;;;;;;;24.38;12.82;;;2.40;99.90;;;;;;5071568;28;20536;-45
2021/12/03 02:29:50;;;;;;;34.53;15.40;;;2.40;99.90;;;;;;5071955;28;20198;-45
2021/12/03 02:32:15;;;;;;;20.92;13.27;;;2.50;99.90;;;;;;5071984;28;20173;-45
2021/12/03 02:34:41;;;;;;;24.33;13.40;;;2.40;99.90;;;;;;5072015;28;20165;-45
2021/12/03 02:37:07;;;;;;;23.35;14.40;;;2.50;99.90;;;;;;5071965;28;20178;-45
2021/12/03 02:39:32;;;;;;;21.65;13.45;;;2.50;99.90;;;;;;5071961;28;20253;-45
2021/12/03 02:41:58;;;;;;;26.58;12.88;;;2.50;99.90;;;;;;5071812;28;20205;-45
2021/12/03 02:44:24;;;;;;;27.70;13.73;;;2.50;99.90;;;;;;5072446;28;20219;-45
2021/12/03 02:46:50;;;;;;;23.08;13.02;;;2.50;99.90;;;;;;5087372;28;20170;-44
2021/12/03 02:49:15;;;;;;;33.15;13.68;;;2.60;99.90;;;;;;5071845;28;20169;-45
2021/12/03 02:51:42;;;;;;;21.77;11.90;;;2.60;99.90;;;;;;5072065;28;20621;-45
2021/12/03 02:54:09;;;;;;;20.48;12.00;;;2.60;99.90;;;;;;5071722;28;20165;-45
2021/12/03 02:56:35;;;;;;;21.60;11.85;;;2.60;99.90;;;;;;5071790;28;20173;-45
2021/12/03 02:59:01;;;;;;;20.08;11.45;;;2.60;99.90;;;;;;5071934;28;20166;-45
2021/12/03 03:01:27;;;;;;;25.25;11.45;;;2.60;99.90;;;;;;5070479;28;20205;-45
2021/12/03 03:03:52;;;;;;;23.40;12.13;;;2.70;99.90;;;;;;5071967;28;20166;-44
2021/12/03 03:06:18;;;;;;;22.60;10.80;;;2.70;99.90;;;;;;5071680;28;20173;-45
2021/12/03 03:08:44;;;;;;;16.60;10.68;;;2.70;99.90;;;;;;5071458;28;20233;-45
2021/12/03 03:11:10;;;;;;;19.90;11.43;;;2.70;99.90;;;;;;5071645;28;20649;-45
2021/12/03 03:13:37;;;;;;;19.10;11.75;;;2.70;99.90;;;;;;5071846;28;20519;-45
2021/12/03 03:16:05;;;;;;;22.80;12.88;;;2.70;99.90;;;;;;5071671;28;20562;-45
2021/12/03 03:18:30;;;;;;;22.08;11.68;;;2.80;99.90;;;;;;5071551;28;20231;-45
2021/12/03 03:20:59;;;;;;;17.70;11.50;;;2.80;99.90;;;;;;5071513;28;20205;-45
2021/12/03 03:23:25;;;;;;;21.80;12.55;;;2.80;99.90;;;;;;5072061;28;20171;-45
2021/12/03 03:25:51;;;;;;;21.50;12.45;;;2.90;99.90;;;;;;5071903;28;20560;-45
2021/12/03 03:28:19;;;;;;;26.58;12.05;;;2.90;99.90;;;;;;5071438;28;20170;-46
2021/12/03 03:30:46;;;;;;;28.42;13.30;;;2.90;99.90;;;;;;5071639;28;20170;-45
2021/12/03 03:33:13;;;;;;;25.80;12.20;;;2.90;99.90;;;;;;5071401;28;20185;-45
2021/12/03 03:35:39;;;;;;;22.85;13.30;;;3.00;99.90;;;;;;5071413;28;20167;-45
2021/12/03 03:38:05;;;;;;;23.25;11.85;;;3.00;99.90;;;;;;5071458;28;20215;-45
2021/12/03 03:40:32;;;;;;;22.50;12.40;;;3.00;99.90;;;;;;5074650;28;20166;-45
2021/12/03 03:43:00;;;;;;;24.42;11.90;;;3.00;99.90;;;;;;5075030;28;20252;-45
2021/12/03 03:45:26;;;;;;;25.35;12.68;;;3.00;99.90;;;;;;5075326;28;20176;-45
2021/12/03 03:47:52;;;;;;;22.30;11.98;;;3.00;99.90;;;;;;5075281;28;20177;-45
2021/12/03 03:50:19;;;;;;;25.10;12.80;;;3.00;99.90;;;;;;5075007;28;20162;-45
2021/12/03 03:52:45;;;;;;;27.88;12.15;;;3.10;99.90;;;;;;5074814;28;20173;-45
2021/12/03 03:55:13;;;;;;;29.42;12.15;;;3.10;99.90;;;;;;5074738;28;20170;-45
2021/12/03 03:57:41;;;;;;;30.85;13.05;;;3.10;99.90;;;;;;5074811;28;20165;-45
2021/12/03 04:00:09;;;;;;;24.65;11.43;;;3.10;99.90;;;;;;5074651;28;20542;-45
2021/12/03 04:02:35;;;;;;;24.17;12.50;;;3.10;99.90;;;;;;5074921;28;20209;-45
2021/12/03 04:05:00;;;;;;;20.85;10.85;;;3.20;99.90;;;;;;5074660;28;20538;-45
2021/12/03 04:07:26;;;;;;;20.25;11.18;;;3.20;99.90;;;;;;5074589;28;20178;-45
2021/12/03 04:09:51;;;;;;;23.40;11.75;;;3.10;99.90;;;;;;5074742;28;20267;-45
2021/12/03 04:12:17;;;;;;;22.42;11.75;;;3.20;99.90;;;;;;5074472;28;20170;-46
2021/12/03 04:14:43;;;;;;;21.85;11.48;;;3.20;99.90;;;;;;5074442;28;20186;-45
2021/12/03 04:17:08;;;;;;;26.95;12.27;;;3.20;99.90;;;;;;5074439;28;20169;-45
2021/12/03 04:19:35;;;;;;;21.42;10.85;;;3.20;99.90;;;;;;5074461;28;20241;-45
2021/12/03 04:22:01;;;;;;;26.80;12.18;;;3.20;99.90;;;;;;5074161;28;20214;-45
2021/12/03 04:24:27;;;;;;;29.48;11.77;;;3.30;99.90;;;;;;5074375;28;20162;-45
2021/12/03 04:26:53;;;;;;;20.67;10.73;;;3.20;99.90;;;;;;5074545;28;20173;-45
2021/12/03 04:29:18;;;;;;;27.92;12.25;;;3.20;99.90;;;;;;5074406;28;20177;-45
2021/12/03 04:31:44;;;;;;;25.25;12.05;;;3.20;99.90;;;;;;5074132;28;20622;-46
2021/12/03 04:34:10;;;;;;;19.30;10.60;;;3.20;99.90;;;;;;5074159;28;20211;-45
2021/12/03 04:36:35;;;;;;;24.67;11.77;;;3.20;99.90;;;;;;5074096;28;20170;-44
2021/12/03 04:39:01;;;;;;;28.58;13.52;;;3.30;99.90;;;;;;5074012;28;20185;-45
2021/12/03 04:41:27;;;;;;;24.65;12.38;;;3.30;99.90;;;;;;5073922;28;20201;-44
2021/12/03 04:43:52;;;;;;;21.50;13.38;;;3.20;99.90;;;;;;5074382;28;20173;-45
2021/12/03 04:46:19;;;;;;;25.40;13.77;;;3.20;99.90;;;;;;5072640;28;20685;-45
2021/12/03 04:48:45;;;;;;;37.80;14.63;;;3.30;99.90;;;;;;5073773;28;20158;-45
2021/12/03 04:51:11;;;;;;;32.35;15.20;;;3.30;99.90;;;;;;5072847;28;20166;-45
2021/12/03 04:53:36;;;;;;;23.27;14.18;;;3.30;99.90;;;;;;5073745;28;20172;-45
2021/12/03 04:56:02;;;;;;;21.70;12.85;;;3.30;99.90;;;;;;5073746;28;20181;-45
2021/12/03 04:58:28;;;;;;;24.92;14.35;;;3.30;99.90;;;;;;5073682;28;20597;-45
2021/12/03 05:00:55;;;;;;;32.08;13.73;;;3.30;99.90;;;;;;5073868;28;20280;-46
2021/12/03 05:03:26;;;;;;;19.73;12.25;;;3.30;99.90;;;;;;5073814;28;20174;-45
2021/12/03 05:05:57;;;;;;;19.52;11.88;;;3.30;99.90;;;;;;5073979;28;20170;-46
2021/12/03 05:08:25;;;;;;;18.85;12.18;;;3.30;99.90;;;;;;5073772;28;20221;-45
2021/12/03 05:10:51;;;;;;;24.42;11.52;;;3.30;99.90;;;;;;5073443;28;20195;-46
2021/12/03 05:13:20;;;;;;;23.50;12.65;;;3.30;99.90;;;;;;5073230;28;20527;-47
2021/12/03 05:15:46;;;;;;;19.40;12.10;;;3.40;99.90;;;;;;5073215;28;20162;-46
2021/12/03 05:18:15;;;;;;;24.77;12.48;;;3.40;99.90;;;;;;5073491;28;20174;-46
2021/12/03 05:20:42;;;;;;;23.02;13.02;;;3.40;99.90;;;;;;5073278;28;20189;-45
2021/12/03 05:23:08;;;;;;;22.58;12.18;;;3.40;99.90;;;;;;5073128;28;20207;-47
2021/12/03 05:25:34;;;;;;;18.88;11.75;;;3.40;99.90;;;;;;5073010;28;20159;-45
2021/12/03 05:28:01;;;;;;;20.38;12.70;;;3.40;99.90;;;;;;5072960;28;20164;-45
2021/12/03 05:30:26;;;;;;;27.63;13.00;;;3.40;99.90;;;;;;5073043;28;20261;-45
2021/12/03 05:32:52;;;;;;;29.63;12.73;;;3.40;99.90;;;;;;5073294;28;20253;-45
2021/12/03 05:35:19;;;;;;;26.77;12.38;;;3.40;99.90;;;;;;5072877;28;20166;-46
2021/12/03 05:37:45;;;;;;;23.73;11.45;;;3.40;99.90;;;;;;5072846;28;20219;-45
2021/12/03 05:40:12;;;;;;;19.17;11.27;;;3.50;99.90;;;;;;5072865;28;20281;-45
2021/12/03 05:42:38;;;;;;;24.10;12.45;;;3.40;99.90;;;;;;5072708;28;20215;-45
2021/12/03 05:45:06;;;;;;;20.23;11.25;;;3.40;99.90;;;;;;5073014;28;20170;-45
2021/12/03 05:47:32;;;;;;;24.77;11.23;;;3.40;99.90;;;;;;5072715;28;20162;-45
2021/12/03 05:49:57;;;;;;;19.98;10.20;;;3.40;99.90;;;;;;5072685;28;20162;-45
2021/12/03 05:52:23;;;;;;;20.67;10.63;;;3.50;99.90;;;;;;5072775;28;20555;-44
2021/12/03 05:54:49;;;;;;;20.30;10.40;;;3.50;99.90;;;;;;5071961;28;20529;-45
2021/12/03 05:57:14;;;;;;;17.60;11.02;;;3.40;99.90;;;;;;5071891;28;20219;-45
2021/12/03 05:59:40;;;;;;;21.80;10.75;;;3.50;99.90;;;;;;5071055;28;20170;-46
2021/12/03 06:02:06;;;;;;;21.27;10.63;;;3.50;99.90;;;;;;5071322;28;20295;-47
2021/12/03 06:04:32;;;;;;;15.68;9.73;;;3.50;99.90;;;;;;5071684;28;20257;-45
2021/12/03 06:06:58;;;;;;;21.55;10.40;;;3.50;99.90;;;;;;5071996;28;20169;-45
2021/12/03 06:09:23;;;;;;;30.55;11.38;;;3.50;99.90;;;;;;5071815;28;20216;-46
2021/12/03 06:11:49;;;;;;;20.42;10.23;;;3.60;99.90;;;;;;5071584;28;20200;-45
2021/12/03 06:14:15;;;;;;;19.25;10.20;;;3.50;99.90;;;;;;5071893;28;21159;-46
2021/12/03 06:16:40;;;;;;;19.90;9.77;;;3.50;99.90;;;;;;5072050;28;20165;-45
2021/12/03 06:19:06;;;;;;;18.20;10.20;;;3.50;99.90;;;;;;5071966;28;20173;-46
2021/12/03 06:21:31;;;;;;;25.15;9.90;;;3.60;99.90;;;;;;5071968;28;20206;-46
2021/12/03 06:23:57;;;;;;;29.15;10.10;;;3.60;99.90;;;;;;5071925;28;20505;-45
2021/12/03 06:26:23;;;;;;;21.75;9.32;;;3.60;99.90;;;;;;5072284;28;20170;-46
2021/12/03 06:28:48;;;;;;;19.30;10.30;;;3.60;99.90;;;;;;5072064;28;20166;-46
2021/12/03 06:31:14;;;;;;;27.10;10.57;;;3.60;99.90;;;;;;5071988;28;20168;-46
2021/12/03 06:33:40;;;;;;;19.67;9.77;;;3.60;99.90;;;;;;5072020;28;20610;-46
2021/12/03 06:36:06;;;;;;;16.23;8.23;;;3.60;99.90;;;;;;5071951;28;20283;-46
2021/12/03 06:38:32;;;;;;;29.20;10.52;;;3.60;99.90;;;;;;5072186;28;20617;-45
2021/12/03 06:40:58;;;;;;;16.52;9.52;;;3.60;99.90;;;;;;5071847;28;20190;-45
2021/12/03 06:43:24;;;;;;;16.17;7.75;;;3.60;99.90;;;;;;5072317;28;20177;-46
2021/12/03 06:45:49;;;;;;;16.35;9.32;;;3.60;99.90;;;;;;5071798;28;20253;-47
2021/12/03 06:48:15;;;;;;;13.07;7.55;;;3.60;99.90;;;;;;5070988;28;20990;-46
2021/12/03 06:50:43;;;;;;;18.88;8.23;;;3.60;99.90;;;;;;5071894;28;20618;-47
2021/12/03 06:53:20;;;;;;;21.63;8.63;;;3.60;99.90;;;;;;5072130;28;20263;-47
2021/12/03 06:55:52;;;;;;;13.45;7.95;;;3.70;99.90;;;;;;5071980;28;20162;-44
2021/12/03 06:58:20;;;;;;;17.30;8.98;;;3.60;99.90;;;;;;5072031;28;20181;-44
2021/12/03 07:00:47;;;;;;;16.35;8.25;;;3.60;99.90;;;;;;5071919;28;20170;-45
2021/12/03 07:03:13;;;;;;;19.40;8.70;;;3.70;99.90;;;;;;5071695;28;20166;-45
2021/12/03 07:05:39;;;;;;;22.90;8.52;;;3.70;99.90;;;;;;5071726;28;20625;-45
2021/12/03 07:08:05;;;;;;;23.15;8.15;;;2.60;99.90;;;;;;5071516;28;20181;-45
2021/12/03 07:10:31;;;;;;;15.40;5.68;;;3.70;99.90;;;;;;5071671;28;20177;-46
2021/12/03 07:12:57;;;;;;;18.77;6.38;;;3.60;99.90;;;;;;5071560;28;20166;-44
2021/12/03 07:15:23;;;;;;;13.50;6.85;;;3.60;99.90;;;;;;5073829;28;20265;-45
2021/12/03 07:17:52;;;;;;;12.82;5.45;;;3.60;99.90;;;;;;5075500;28;20219;-45
2021/12/03 07:20:21;;;;;;;13.88;6.05;;;3.60;99.90;;;;;;5075658;28;20189;-44
2021/12/03 07:22:47;;;;;;;13.85;6.13;;;3.60;99.90;;;;;;5075270;28;20204;-45
2021/12/03 07:25:13;;;;;;;18.27;6.22;;;3.60;99.90;;;;;;5075298;28;20170;-45
2021/12/03 07:27:38;;;;;;;12.23;6.13;;;3.50;99.90;;;;;;5075283;28;20213;-45
2021/12/03 07:30:05;;;;;;;15.40;5.43;;;3.60;99.90;;;;;;5075313;28;20193;-44
2021/12/03 07:32:31;;;;;;;12.57;5.63;;;3.50;99.90;;;;;;5075159;28;20178;-45
2021/12/03 07:34:58;;;;;;;12.15;5.60;;;3.50;99.90;;;;;;5075145;28;20173;-45
2021/12/03 07:37:24;;;;;;;15.68;5.97;;;3.50;99.90;;;;;;5074237;28;20538;-44
2021/12/03 07:39:49;;;;;;;11.95;4.72;;;3.50;99.90;;;;;;5075015;28;20170;-46
2021/12/03 07:42:15;;;;;;;16.80;5.65;;;3.50;99.90;;;;;;5074929;28;20293;-46
2021/12/03 07:44:41;;;;;;;12.80;4.38;;;3.50;99.90;;;;;;5075002;28;20168;-46
2021/12/03 07:47:07;;;;;;;12.43;4.72;;;3.50;99.90;;;;;;5075004;28;20228;-45
2021/12/03 07:49:32;;;;;;;6.93;4.03;;;3.40;99.90;;;;;;5074880;28;20166;-46
2021/12/03 07:51:58;;;;;;;15.15;5.30;;;3.50;99.90;;;;;;5075159;28;20174;-45
2021/12/03 07:54:24;;;;;;;19.98;4.85;;;3.40;99.90;;;;;;5075364;28;20176;-44
2021/12/03 07:56:49;;;;;;;9.60;4.88;;;3.50;99.90;;;;;;5074715;28;20249;-46
2021/12/03 07:59:15;;;;;;;12.05;4.10;;;3.40;99.90;;;;;;5074775;28;20181;-45
2021/12/03 08:01:42;;;;;;;10.57;3.85;;;3.50;99.90;;;;;;5074832;28;20202;-46
2021/12/03 08:04:08;;;;;;;11.65;4.82;;;3.50;99.90;;;;;;5073588;28;20525;-45
2021/12/03 08:06:36;;;;;;;10.45;4.25;;;3.50;99.90;;;;;;5074755;28;20234;-46
2021/12/03 08:09:02;;;;;;;13.85;5.20;;;3.50;99.90;;;;;;5074426;28;20241;-45
2021/12/03 08:11:28;;;;;;;11.73;5.03;;;3.50;99.90;;;;;;5074532;28;20262;-45
2021/12/03 08:13:53;;;;;;;16.75;4.97;;;3.50;99.90;;;;;;5074974;28;20166;-45
2021/12/03 08:16:19;;;;;;;13.95;3.90;;;3.60;99.90;;;;;;5074306;28;20622;-44
2021/12/03 08:18:45;;;;;;;10.52;4.78;;;3.60;99.90;;;;;;5074366;28;20178;-45
2021/12/03 08:21:11;;;;;;;10.50;3.92;;;3.60;99.90;;;;;;5074262;28;20186;-45
2021/12/03 08:23:36;;;;;;;13.45;4.00;;;3.70;99.90;;;;;;5074592;28;20228;-45
2021/12/03 08:26:02;;;;;;;17.05;3.85;;;3.60;99.90;;;;;;5072988;28;20176;-45
2021/12/03 08:28:28;;;;;;;13.20;4.47;;;3.60;99.90;;;;;;5074180;28;20162;-45
2021/12/03 08:30:53;;;;;;;13.43;5.72;;;3.60;99.90;;;;;;5074792;28;20257;-44
2021/12/03 08:33:20;;;;;;;16.70;4.47;;;3.60;99.90;;;;;;5074154;28;20170;-45
2021/12/03 08:35:45;;;;;;;12.93;4.25;;;3.70;99.90;;;;;;5074358;28;20269;-46
2021/12/03 08:38:11;;;;;;;12.48;4.28;;;3.60;99.90;;;;;;5074277;28;20649;-46
2021/12/03 08:40:37;;;;;;;10.20;4.18;;;3.70;99.90;;;;;;5074044;28;20510;-45
2021/12/03 08:43:02;;;;;;;7.85;3.72;;;3.70;99.90;;;;;;5073949;28;20590;-45
2021/12/03 08:45:28;;;;;;;20.80;5.25;;;3.70;99.90;;;;;;5073994;28;20181;-45
2021/12/03 08:47:58;;;;;;;19.73;4.47;;;3.70;99.90;;;;;;5074346;28;20281;-45
2021/12/03 08:50:34;;;;;;;12.32;3.60;;;3.80;99.90;;;;;;5074112;28;20622;-45
2021/12/03 08:53:17;;;;;;;11.48;4.20;;;3.80;99.90;;;;;;5073698;28;20166;-45
2021/12/03 08:55:43;;;;;;;9.93;3.45;;;3.80;99.90;;;;;;5073889;28;20178;-44
2021/12/03 08:58:10;;;;;;;14.88;4.13;;;3.70;99.90;;;;;;5073634;28;20174;-45
2021/12/03 09:00:37;;;;;;;12.20;3.45;;;3.80;99.90;;;;;;5073876;28;20174;-45
2021/12/03 09:03:05;;;;;;;9.23;2.88;;;3.80;99.90;;;;;;5073539;28;20208;-46
2021/12/03 09:05:31;;;;;;;9.93;3.80;;;3.70;99.90;;;;;;5073486;28;20181;-45
2021/12/03 09:07:58;;;;;;;12.55;3.45;;;3.90;99.90;;;;;;5073519;28;20201;-45
2021/12/03 09:10:24;;;;;;;14.85;3.45;;;3.90;99.90;;;;;;5073883;28;20182;-45
2021/12/03 09:12:50;;;;;;;10.25;3.05;;;4.00;99.90;;;;;;5073268;28;20174;-44
2021/12/03 09:15:17;;;;;;;11.88;3.60;;;4.00;99.90;;;;;;5073197;28;20166;-45
2021/12/03 09:23:01;;;;;;;16.10;4.53;;;4.10;99.90;;;;;;5073365;28;20205;-44
2021/12/03 09:25:33;;;;;;;6.25;2.15;;;4.10;99.90;;;;;;5073135;28;20566;-45
2021/12/03 09:28:02;;;;;;;2.78;1.83;;;4.10;99.90;;;;;;5073353;28;20626;-44
2021/12/03 09:30:34;;;;;;;14.48;3.50;;;4.10;99.90;;;;;;5072757;28;20527;-45
2021/12/03 09:33:00;;;;;;;7.13;3.35;;;4.10;99.90;;;;;;5073105;28;20193;-44
2021/12/03 09:35:27;;;;;;;16.33;3.03;;;4.20;99.90;;;;;;5072884;28;20208;-44
2021/12/03 09:37:52;;;;;;;10.80;3.03;;;4.20;99.90;;;;;;5072919;28;20170;-44
2021/12/03 09:40:23;;;;;;;15.68;2.80;;;4.20;99.90;;;;;;5072784;28;20249;-44
2021/12/03 09:42:49;;;;;;;15.38;3.50;;;4.20;99.90;;;;;;5072710;28;20205;-44
2021/12/03 09:45:15;;;;;;;10.75;2.65;;;4.30;99.90;;;;;;5072600;28;20212;-45
2021/12/03 09:47:41;;;;;;;7.93;2.85;;;4.40;99.90;;;;;;5072636;28;20638;-44
2021/12/03 09:50:12;;;;;;;10.98;3.20;;;4.30;99.90;;;;;;5072786;28;20170;-45
2021/12/03 09:53:13;;;;;;;10.93;2.97;;;4.40;99.90;;;;;;5072815;28;20177;-45
2021/12/03 09:55:25;;;;;;;7.50;2.67;;;4.40;99.90;;;;;;5072447;28;20231;-45
2021/12/03 09:58:07;;;;;;;14.48;3.35;;;4.40;99.90;;;;;;5072765;28;20162;-44
2021/12/03 10:00:46;;;;;;;13.10;2.58;;;4.40;99.90;;;;;;5072666;28;20177;-45
2021/12/03 10:04:02;;;;;;;9.85;2.30;;;4.50;99.90;;;;;;5072661;28;20197;-44
2021/12/03 10:11:48;;;;;;;10.93;3.13;;;4.50;99.90;;;;;;5072588;28;20166;-44
2021/12/03 10:20:23;;;;;;;13.75;2.60;;;4.60;99.90;;;;;;5060173;28;20208;-45
2021/12/03 10:29:20;;;;;;;7.88;2.25;;;4.70;99.90;;;;;;5072113;28;20231;-45
2021/12/03 10:32:22;;;;;;;9.00;2.47;;;4.80;99.90;;;;;;5072321;28;20177;-45
2021/12/03 10:35:31;;;;;;;11.40;2.80;;;4.80;99.90;;;;;;5071950;28;20190;-44
2021/12/03 10:41:15;;;;;;;9.60;2.53;;;4.80;99.90;;;;;;5071947;28;20194;-45
2021/12/03 10:49:38;;;;;;;4.45;1.95;;;5.00;99.90;;;;;;5071643;28;20177;-45
2021/12/03 10:51:58;;;;;;;9.05;2.63;;;5.00;99.90;;;;;;5068649;28;20193;-45
2021/12/03 10:54:53;;;;;;;4.63;1.98;;;5.10;99.90;;;;;;5072099;28;20173;-45
2021/12/03 11:06:01;;;;;;;10.60;3.08;;;4.90;99.90;;;;;;5072302;28;20189;-45
2021/12/03 11:20:42;;;;;;;4.85;1.77;;;4.90;99.90;;;;;;5071513;28;20165;-45
2021/12/03 11:43:03;;;;;;;5.03;1.38;;;4.90;99.90;;;;;;5071034;28;20286;-45
2021/12/03 12:22:25;;;;;;;4.03;2.10;;;5.10;99.90;;;;;;5074185;28;20163;-44
2021/12/03 12:39:19;;;;;;;11.95;3.00;;;5.30;99.90;;;;;;5074307;28;20158;-44
2021/12/03 12:55:51;;;;;;;3.97;1.95;;;5.40;99.90;;;;;;5074084;28;20219;-45
2021/12/03 12:58:50;;;;;;;4.75;2.30;;;5.40;99.90;;;;;;5051511;28;20672;-45
2021/12/03 13:36:54;;;;;;;1.77;1.50;;;5.40;99.90;;;;;;5072894;28;20158;-45
2021/12/03 14:09:15;;;;;;;4.78;1.92;;;5.20;99.90;;;;;;5072281;28;20229;-44
2021/12/03 14:12:52;;;;;;;4.70;1.67;;;5.30;99.90;;;;;;5072296;28;20536;-44
2021/12/03 14:15:57;;;;;;;3.20;2.20;;;5.30;99.90;;;;;;5071971;28;20185;-44
2021/12/03 14:19:09;;;;;;;5.22;2.38;;;5.30;99.90;;;;;;5071704;28;20197;-45
2021/12/03 14:30:43;;;;;;;4.60;2.08;;;5.30;99.90;;;;;;5072154;28;20618;-45
2021/12/03 14:54:33;;;;;;;4.95;3.63;;;5.20;99.90;;;;;;5071917;28;20162;-45
2021/12/03 15:05:23;;;;;;;6.35;3.38;;;5.10;99.90;;;;;;5071768;28;20158;-44
2021/12/03 15:07:52;;;;;;;8.20;4.70;;;5.10;99.90;;;;;;5071783;28;20181;-45
2021/12/03 15:10:27;;;;;;;12.13;5.70;;;5.00;99.90;;;;;;5071316;28;20212;-45
2021/12/03 15:29:34;;;;;;;16.90;5.28;;;5.10;99.90;;;;;;5071265;28;20691;-45
2021/12/03 16:04:02;;;;;;;7.10;3.30;;;5.30;99.90;;;;;;5074333;28;20554;-45
2021/12/03 16:06:37;;;;;;;4.88;3.08;;;5.30;99.90;;;;;;5074588;28;20232;-45
2021/12/03 16:09:11;;;;;;;5.70;2.97;;;5.20;99.90;;;;;;5074312;28;20225;-45
2021/12/03 16:11:41;;;;;;;3.75;2.33;;;5.20;99.90;;;;;;5074128;28;20209;-45
2021/12/03 16:14:29;;;;;;;5.68;3.17;;;5.30;99.90;;;;;;5074054;28;20621;-45
2021/12/03 16:17:13;;;;;;;5.65;2.75;;;5.30;99.90;;;;;;5074010;28;20178;-45
2021/12/03 16:43:37;;;;;;;12.45;6.45;;;5.20;99.90;;;;;;5065222;28;20181;-45
2021/12/03 16:44:03;;;;;;;15.57;4.00;;;5.30;99.90;;;;;;5073900;28;20381;-44
2021/12/03 16:46:48;;;;;;;12.55;5.15;;;5.30;99.90;;;;;;5072000;28;20173;-44
2021/12/03 16:51:58;;;;;;;12.55;5.30;;;5.30;99.90;;;;;;5073477;28;20177;-45
2021/12/03 16:54:41;;;;;;;8.57;4.43;;;5.30;99.90;;;;;;5073907;28;20173;-45
2021/12/03 16:57:08;;;;;;;9.07;6.43;;;5.30;99.90;;;;;;5073127;28;20264;-45
2021/12/03 16:59:34;;;;;;;11.05;6.93;;;5.30;99.90;;;;;;5073250;28;20185;-45
2021/12/03 17:02:04;;;;;;;22.52;10.23;;;5.30;99.90;;;;;;5073390;28;20221;-46
2021/12/03 17:07:50;;;;;;;20.60;7.95;;;5.30;99.90;;;;;;5073485;28;20600;-44
2021/12/03 17:13:20;;;;;;;10.38;4.85;;;5.30;99.90;;;;;;5073059;28;20215;-45
2021/12/03 17:18:51;;;;;;;17.02;8.45;;;5.30;99.90;;;;;;5073026;28;20165;-44
2021/12/03 17:26:56;;;;;;;11.25;5.45;;;5.30;99.90;;;;;;5043720;28;20204;-44
2021/12/03 17:44:32;;;;;;;9.98;4.70;;;5.30;99.90;;;;;;5072380;28;20699;-44
2021/12/03 17:45:55;;;;;;;8.77;3.80;;;5.20;99.90;;;;;;5061167;28;20630;-45
2021/12/03 17:53:44;;;;;;;10.98;5.55;;;5.30;99.90;;;;;;5072631;28;20170;-44
2021/12/03 17:56:18;;;;;;;13.90;4.97;;;5.30;99.90;;;;;;5072477;28;20227;-45
2021/12/03 17:58:46;;;;;;;8.30;5.63;;;5.30;99.90;;;;;;5071892;28;20177;-44
2021/12/03 18:01:28;;;;;;;12.05;4.43;;;5.30;99.90;;;;;;5072259;28;20170;-44
2021/12/03 18:04:08;;;;;;;9.82;5.07;;;5.30;99.90;;;;;;5072749;28;20182;-45
2021/12/03 18:44:10;;;;;;;9.65;4.38;;;5.10;99.90;;;;;;5071810;28;20172;-44
2021/12/03 18:51:46;;;;;;;3.25;2.67;;;5.20;99.90;;;;;;5071579;28;20539;-44
2021/12/03 18:56:52;;;;;;;3.92;2.40;;;5.10;99.90;;;;;;5071427;28;20161;-43
2021/12/03 18:59:18;;;;;;;2.65;1.95;;;5.10;99.90;;;;;;5071156;28;20656;-44
2021/12/03 19:01:44;;;;;;;1.80;1.70;;;5.10;99.90;;;;;;5071209;28;20197;-44
2021/12/03 19:06:48;;;;;;;2.50;1.98;;;5.00;99.90;;;;;;5071491;28;20166;-45
2021/12/03 19:14:11;;;;;;;3.33;2.13;;;5.10;99.90;;;;;;5075712;28;20162;-45
2021/12/03 19:16:37;;;;;;;2.20;1.70;;;5.10;99.90;;;;;;5075699;28;20173;-44
2021/12/03 19:19:04;;;;;;;4.82;2.20;;;5.10;99.90;;;;;;5075554;28;20633;-43
2021/12/03 19:21:37;;;;;;;2.85;1.83;;;5.10;99.90;;;;;;5075395;28;20193;-44
2021/12/03 19:24:03;;;;;;;3.05;1.77;;;5.10;99.90;;;;;;5075310;28;20182;-44
2021/12/03 19:26:32;;;;;;;2.35;1.58;;;5.10;99.90;;;;;;5074785;28;20181;-45
2021/12/03 19:29:00;;;;;;;3.13;1.63;;;5.10;99.90;;;;;;5074679;28;20224;-44
2021/12/03 19:31:27;;;;;;;1.90;1.38;;;5.10;99.90;;;;;;5075230;28;20173;-44